LEAS/OVD METAR and TAF weather

Enter ICAO airport designator
Station Type Date Time Source
LEAS METAR 2020/04/06 14:30 UTC NOAA

LEAS 061430Z 13007KT 080V180 9999 FEW013 SCT042 BKN070 15/09 Q1021 NOSIG


Station Type Date Time Source
LEAS Decoded METAR 2020/04/06 14:30 UTC NOAA

Asturias / Aviles, Spain (LEAS) 43-33N 006-02W 130M
Apr 06, 2020 - 10:30 AM EDT / 2020.04.06 1430 UTC
Wind: from the SE (130 degrees) at 8 MPH (7 KT) (direction variable):0
Visibility: greater than 7 mile(s):0
Sky conditions: mostly cloudy
Temperature: 59 F (15 C)
Dew Point: 48 F (9 C)
Relative Humidity: 67%
Pressure (altimeter): 30.15 in. Hg (1021 hPa)
ob: LEAS 061430Z 13007KT 080V180 9999 FEW013 SCT042 BKN070 15/09 Q1021 NOSIG
cycle: 14

Station Type Date Time Source
LEAS TAF 2020/04/06 15:30 UTC NOAA

TAF LEAS 061400Z 0615/0715 11009KT 9999 FEW015 BKN040 TX20/0712Z TN08/0706Z
TEMPO 0621/0707 3000 BR BCFG BKN010

Example: see airport list